sensor_id;sensor_type;location;lat;lon;timestamp;P1;durP1;ratioP1;P2;durP2;ratioP2
37851;SDS011;23691;52.486;4.650;2023-02-03T00:01:41;28.40;;;5.10;;
37851;SDS011;23691;52.486;4.650;2023-02-03T00:04:07;27.52;;;5.30;;
37851;SDS011;23691;52.486;4.650;2023-02-03T00:06:32;32.13;;;6.00;;
37851;SDS011;23691;52.486;4.650;2023-02-03T00:08:58;35.60;;;5.53;;
37851;SDS011;23691;52.486;4.650;2023-02-03T00:11:25;29.73;;;6.10;;
37851;SDS011;23691;52.486;4.650;2023-02-03T00:13:53;31.60;;;5.78;;
37851;SDS011;23691;52.486;4.650;2023-02-03T00:16:18;34.53;;;6.75;;
37851;SDS011;23691;52.486;4.650;2023-02-03T00:18:44;32.30;;;5.88;;
37851;SDS011;23691;52.486;4.650;2023-02-03T00:21:09;31.70;;;6.18;;
37851;SDS011;23691;52.486;4.650;2023-02-03T00:23:35;31.90;;;5.93;;
37851;SDS011;23691;52.486;4.650;2023-02-03T00:26:10;27.30;;;5.57;;
37851;SDS011;23691;52.486;4.650;2023-02-03T00:28:37;31.80;;;5.60;;
37851;SDS011;23691;52.486;4.650;2023-02-03T00:31:03;28.88;;;6.03;;
37851;SDS011;23691;52.486;4.650;2023-02-03T00:33:29;29.60;;;5.82;;
37851;SDS011;23691;52.486;4.650;2023-02-03T00:35:54;31.35;;;6.60;;
37851;SDS011;23691;52.486;4.650;2023-02-03T00:38:19;26.77;;;5.40;;
37851;SDS011;23691;52.486;4.650;2023-02-03T00:40:54;28.40;;;5.68;;
37851;SDS011;23691;52.486;4.650;2023-02-03T00:43:21;26.75;;;5.82;;
37851;SDS011;23691;52.486;4.650;2023-02-03T00:45:47;31.92;;;5.63;;
37851;SDS011;23691;52.486;4.650;2023-02-03T00:48:12;32.65;;;5.40;;
37851;SDS011;23691;52.486;4.650;2023-02-03T00:50:38;28.02;;;4.85;;
37851;SDS011;23691;52.486;4.650;2023-02-03T00:53:04;29.30;;;4.75;;
37851;SDS011;23691;52.486;4.650;2023-02-03T00:55:29;30.38;;;4.68;;
37851;SDS011;23691;52.486;4.650;2023-02-03T00:57:54;27.17;;;4.10;;
37851;SDS011;23691;52.486;4.650;2023-02-03T01:00:20;26.75;;;4.80;;
37851;SDS011;23691;52.486;4.650;2023-02-03T01:02:45;30.33;;;4.13;;
37851;SDS011;23691;52.486;4.650;2023-02-03T01:05:11;29.30;;;4.47;;
37851;SDS011;23691;52.486;4.650;2023-02-03T01:07:37;31.27;;;4.22;;
37851;SDS011;23691;52.486;4.650;2023-02-03T01:10:03;31.23;;;5.00;;
37851;SDS011;23691;52.486;4.650;2023-02-03T01:12:29;28.15;;;4.22;;
37851;SDS011;23691;52.486;4.650;2023-02-03T01:14:55;25.92;;;4.18;;
37851;SDS011;23691;52.486;4.650;2023-02-03T01:17:20;35.45;;;4.53;;
37851;SDS011;23691;52.486;4.650;2023-02-03T01:19:45;28.42;;;4.30;;
37851;SDS011;23691;52.486;4.650;2023-02-03T01:22:11;26.15;;;4.38;;
37851;SDS011;23691;52.486;4.650;2023-02-03T01:24:36;26.00;;;4.00;;
37851;SDS011;23691;52.486;4.650;2023-02-03T01:27:01;27.40;;;3.85;;
37851;SDS011;23691;52.486;4.650;2023-02-03T01:29:27;24.45;;;4.05;;
37851;SDS011;23691;52.486;4.650;2023-02-03T01:31:52;21.85;;;3.55;;
37851;SDS011;23691;52.486;4.650;2023-02-03T01:34:17;23.17;;;4.10;;
37851;SDS011;23691;52.486;4.650;2023-02-03T01:36:43;36.20;;;4.20;;
37851;SDS011;23691;52.486;4.650;2023-02-03T01:39:10;27.55;;;3.95;;
37851;SDS011;23691;52.486;4.650;2023-02-03T01:41:37;28.90;;;3.75;;
37851;SDS011;23691;52.486;4.650;2023-02-03T01:46:59;26.10;;;4.10;;
37851;SDS011;23691;52.486;4.650;2023-02-03T01:49:28;25.25;;;3.65;;
37851;SDS011;23691;52.486;4.650;2023-02-03T01:51:58;26.58;;;3.50;;
37851;SDS011;23691;52.486;4.650;2023-02-03T01:54:25;30.00;;;3.88;;
37851;SDS011;23691;52.486;4.650;2023-02-03T01:56:58;27.83;;;3.85;;
37851;SDS011;23691;52.486;4.650;2023-02-03T01:59:27;25.55;;;4.03;;
37851;SDS011;23691;52.486;4.650;2023-02-03T02:01:55;28.60;;;3.80;;
37851;SDS011;23691;52.486;4.650;2023-02-03T02:04:23;24.25;;;3.95;;
37851;SDS011;23691;52.486;4.650;2023-02-03T02:06:54;27.25;;;4.15;;
37851;SDS011;23691;52.486;4.650;2023-02-03T02:09:21;28.85;;;3.95;;
37851;SDS011;23691;52.486;4.650;2023-02-03T02:11:48;29.33;;;4.22;;
37851;SDS011;23691;52.486;4.650;2023-02-03T02:14:13;29.23;;;3.63;;
37851;SDS011;23691;52.486;4.650;2023-02-03T02:19:50;26.63;;;4.35;;
37851;SDS011;23691;52.486;4.650;2023-02-03T02:28:43;30.05;;;3.88;;
37851;SDS011;23691;52.486;4.650;2023-02-03T02:31:46;27.05;;;3.83;;
37851;SDS011;23691;52.486;4.650;2023-02-03T02:37:02;29.25;;;4.07;;
37851;SDS011;23691;52.486;4.650;2023-02-03T02:39:39;30.33;;;4.53;;
37851;SDS011;23691;52.486;4.650;2023-02-03T02:42:20;31.85;;;4.30;;
37851;SDS011;23691;52.486;4.650;2023-02-03T02:44:54;30.65;;;4.63;;
37851;SDS011;23691;52.486;4.650;2023-02-03T02:47:23;30.88;;;4.55;;
37851;SDS011;23691;52.486;4.650;2023-02-03T02:49:53;27.08;;;4.32;;
37851;SDS011;23691;52.486;4.650;2023-02-03T02:52:20;27.50;;;4.25;;
37851;SDS011;23691;52.486;4.650;2023-02-03T02:54:53;24.02;;;3.70;;
37851;SDS011;23691;52.486;4.650;2023-02-03T02:57:22;27.05;;;4.43;;
37851;SDS011;23691;52.486;4.650;2023-02-03T03:02:15;31.08;;;4.70;;
37851;SDS011;23691;52.486;4.650;2023-02-03T03:04:41;33.47;;;4.72;;
37851;SDS011;23691;52.486;4.650;2023-02-03T03:07:12;35.42;;;4.88;;
37851;SDS011;23691;52.486;4.650;2023-02-03T03:09:43;33.70;;;4.60;;
37851;SDS011;23691;52.486;4.650;2023-02-03T03:12:14;29.45;;;4.25;;
37851;SDS011;23691;52.486;4.650;2023-02-03T03:14:45;32.67;;;4.60;;
37851;SDS011;23691;52.486;4.650;2023-02-03T03:17:16;32.50;;;4.65;;
37851;SDS011;23691;52.486;4.650;2023-02-03T03:19:49;30.17;;;4.30;;
37851;SDS011;23691;52.486;4.650;2023-02-03T03:22:22;29.98;;;4.18;;
37851;SDS011;23691;52.486;4.650;2023-02-03T03:24:59;29.98;;;4.38;;
37851;SDS011;23691;52.486;4.650;2023-02-03T03:27:32;27.35;;;4.18;;
37851;SDS011;23691;52.486;4.650;2023-02-03T03:30:05;27.77;;;3.92;;
37851;SDS011;23691;52.486;4.650;2023-02-03T03:32:36;29.90;;;4.65;;
37851;SDS011;23691;52.486;4.650;2023-02-03T03:35:02;35.63;;;4.68;;
37851;SDS011;23691;52.486;4.650;2023-02-03T03:37:35;26.67;;;4.85;;
37851;SDS011;23691;52.486;4.650;2023-02-03T03:40:10;37.75;;;5.13;;
37851;SDS011;23691;52.486;4.650;2023-02-03T03:42:46;34.40;;;4.85;;
37851;SDS011;23691;52.486;4.650;2023-02-03T03:45:16;27.05;;;4.68;;
37851;SDS011;23691;52.486;4.650;2023-02-03T03:50:26;33.88;;;4.40;;
37851;SDS011;23691;52.486;4.650;2023-02-03T03:52:55;34.30;;;4.47;;
37851;SDS011;23691;52.486;4.650;2023-02-03T03:55:23;26.63;;;4.57;;
37851;SDS011;23691;52.486;4.650;2023-02-03T03:58:02;29.10;;;4.40;;
37851;SDS011;23691;52.486;4.650;2023-02-03T04:00:31;29.42;;;3.88;;
37851;SDS011;23691;52.486;4.650;2023-02-03T04:03:01;29.48;;;4.57;;
37851;SDS011;23691;52.486;4.650;2023-02-03T04:05:32;37.40;;;4.60;;
37851;SDS011;23691;52.486;4.650;2023-02-03T04:07:58;33.20;;;5.30;;
37851;SDS011;23691;52.486;4.650;2023-02-03T04:10:32;36.47;;;5.63;;
37851;SDS011;23691;52.486;4.650;2023-02-03T04:12:59;27.05;;;4.78;;
37851;SDS011;23691;52.486;4.650;2023-02-03T04:15:25;37.10;;;6.28;;
37851;SDS011;23691;52.486;4.650;2023-02-03T04:17:51;36.45;;;5.50;;
37851;SDS011;23691;52.486;4.650;2023-02-03T04:20:16;27.90;;;5.10;;
37851;SDS011;23691;52.486;4.650;2023-02-03T04:22:42;33.42;;;5.60;;
37851;SDS011;23691;52.486;4.650;2023-02-03T04:25:07;33.53;;;5.53;;
37851;SDS011;23691;52.486;4.650;2023-02-03T04:27:34;31.38;;;5.57;;
37851;SDS011;23691;52.486;4.650;2023-02-03T04:29:59;37.70;;;6.30;;
37851;SDS011;23691;52.486;4.650;2023-02-03T04:32:24;36.38;;;5.93;;
37851;SDS011;23691;52.486;4.650;2023-02-03T04:34:50;29.35;;;4.88;;
37851;SDS011;23691;52.486;4.650;2023-02-03T04:37:15;32.00;;;5.38;;
37851;SDS011;23691;52.486;4.650;2023-02-03T04:39:41;31.55;;;4.90;;
37851;SDS011;23691;52.486;4.650;2023-02-03T04:42:06;34.60;;;5.50;;
37851;SDS011;23691;52.486;4.650;2023-02-03T04:44:32;27.75;;;4.60;;
37851;SDS011;23691;52.486;4.650;2023-02-03T04:46:57;34.15;;;5.43;;
37851;SDS011;23691;52.486;4.650;2023-02-03T04:49:22;30.15;;;5.55;;
37851;SDS011;23691;52.486;4.650;2023-02-03T04:51:48;39.05;;;6.03;;
37851;SDS011;23691;52.486;4.650;2023-02-03T04:54:13;32.53;;;5.30;;
37851;SDS011;23691;52.486;4.650;2023-02-03T04:56:39;33.30;;;5.03;;
37851;SDS011;23691;52.486;4.650;2023-02-03T04:59:04;30.05;;;5.13;;
37851;SDS011;23691;52.486;4.650;2023-02-03T05:01:30;35.40;;;6.57;;
37851;SDS011;23691;52.486;4.650;2023-02-03T05:03:55;31.65;;;5.65;;
37851;SDS011;23691;52.486;4.650;2023-02-03T05:06:22;34.08;;;5.97;;
37851;SDS011;23691;52.486;4.650;2023-02-03T05:08:49;36.97;;;5.18;;
37851;SDS011;23691;52.486;4.650;2023-02-03T05:11:14;29.13;;;5.00;;
37851;SDS011;23691;52.486;4.650;2023-02-03T05:13:40;31.38;;;6.10;;
37851;SDS011;23691;52.486;4.650;2023-02-03T05:16:05;34.60;;;5.60;;
37851;SDS011;23691;52.486;4.650;2023-02-03T05:18:31;29.00;;;5.05;;
37851;SDS011;23691;52.486;4.650;2023-02-03T05:20:56;28.98;;;5.80;;
37851;SDS011;23691;52.486;4.650;2023-02-03T05:23:21;30.70;;;5.65;;
37851;SDS011;23691;52.486;4.650;2023-02-03T05:25:47;36.10;;;7.03;;
37851;SDS011;23691;52.486;4.650;2023-02-03T05:28:12;30.55;;;6.28;;
37851;SDS011;23691;52.486;4.650;2023-02-03T05:30:38;34.40;;;7.35;;
37851;SDS011;23691;52.486;4.650;2023-02-03T05:33:03;30.35;;;5.10;;
37851;SDS011;23691;52.486;4.650;2023-02-03T05:35:28;29.85;;;5.00;;
37851;SDS011;23691;52.486;4.650;2023-02-03T05:37:54;29.83;;;5.10;;
37851;SDS011;23691;52.486;4.650;2023-02-03T05:40:19;22.88;;;3.78;;
37851;SDS011;23691;52.486;4.650;2023-02-03T05:43:03;26.48;;;4.40;;
37851;SDS011;23691;52.486;4.650;2023-02-03T05:45:29;22.63;;;4.40;;
37851;SDS011;23691;52.486;4.650;2023-02-03T05:47:54;23.80;;;3.80;;
37851;SDS011;23691;52.486;4.650;2023-02-03T05:50:19;25.40;;;4.25;;
37851;SDS011;23691;52.486;4.650;2023-02-03T05:52:46;26.88;;;4.25;;
37851;SDS011;23691;52.486;4.650;2023-02-03T05:55:12;22.52;;;3.45;;
37851;SDS011;23691;52.486;4.650;2023-02-03T05:57:37;24.08;;;4.13;;
37851;SDS011;23691;52.486;4.650;2023-02-03T06:00:03;28.42;;;4.63;;
37851;SDS011;23691;52.486;4.650;2023-02-03T06:02:28;29.83;;;4.22;;
37851;SDS011;23691;52.486;4.650;2023-02-03T06:04:54;24.58;;;4.10;;
37851;SDS011;23691;52.486;4.650;2023-02-03T06:07:19;26.98;;;4.15;;
37851;SDS011;23691;52.486;4.650;2023-02-03T06:09:44;26.98;;;4.28;;
37851;SDS011;23691;52.486;4.650;2023-02-03T06:12:10;26.80;;;4.95;;
37851;SDS011;23691;52.486;4.650;2023-02-03T06:14:35;25.48;;;4.40;;
37851;SDS011;23691;52.486;4.650;2023-02-03T06:17:01;28.38;;;4.38;;
37851;SDS011;23691;52.486;4.650;2023-02-03T06:19:26;23.58;;;4.22;;
37851;SDS011;23691;52.486;4.650;2023-02-03T06:21:51;27.67;;;4.93;;
37851;SDS011;23691;52.486;4.650;2023-02-03T06:24:17;22.98;;;4.32;;
37851;SDS011;23691;52.486;4.650;2023-02-03T06:26:42;28.90;;;4.22;;
37851;SDS011;23691;52.486;4.650;2023-02-03T06:29:07;30.70;;;4.10;;
37851;SDS011;23691;52.486;4.650;2023-02-03T06:31:33;25.20;;;3.95;;
37851;SDS011;23691;52.486;4.650;2023-02-03T06:33:58;24.90;;;3.60;;
37851;SDS011;23691;52.486;4.650;2023-02-03T06:36:26;26.52;;;3.97;;
37851;SDS011;23691;52.486;4.650;2023-02-03T06:38:52;23.88;;;3.78;;
37851;SDS011;23691;52.486;4.650;2023-02-03T06:41:17;31.40;;;4.65;;
37851;SDS011;23691;52.486;4.650;2023-02-03T06:43:42;23.10;;;4.40;;
37851;SDS011;23691;52.486;4.650;2023-02-03T06:46:08;27.42;;;3.88;;
37851;SDS011;23691;52.486;4.650;2023-02-03T06:48:33;24.80;;;3.72;;
37851;SDS011;23691;52.486;4.650;2023-02-03T06:50:58;25.83;;;4.55;;
37851;SDS011;23691;52.486;4.650;2023-02-03T06:53:24;26.95;;;4.07;;
37851;SDS011;23691;52.486;4.650;2023-02-03T06:55:49;26.98;;;5.40;;
37851;SDS011;23691;52.486;4.650;2023-02-03T06:58:15;26.05;;;4.47;;
37851;SDS011;23691;52.486;4.650;2023-02-03T07:00:40;26.48;;;4.80;;
37851;SDS011;23691;52.486;4.650;2023-02-03T07:03:05;23.65;;;4.55;;
37851;SDS011;23691;52.486;4.650;2023-02-03T07:05:31;27.73;;;4.32;;
37851;SDS011;23691;52.486;4.650;2023-02-03T07:07:56;31.10;;;4.63;;
37851;SDS011;23691;52.486;4.650;2023-02-03T07:10:23;31.10;;;4.47;;
37851;SDS011;23691;52.486;4.650;2023-02-03T07:12:48;30.67;;;4.72;;
37851;SDS011;23691;52.486;4.650;2023-02-03T07:15:14;29.70;;;4.63;;
37851;SDS011;23691;52.486;4.650;2023-02-03T07:17:40;36.65;;;4.50;;
37851;SDS011;23691;52.486;4.650;2023-02-03T07:20:06;31.50;;;4.60;;
37851;SDS011;23691;52.486;4.650;2023-02-03T07:22:32;28.67;;;4.40;;
37851;SDS011;23691;52.486;4.650;2023-02-03T07:24:57;27.40;;;4.47;;
37851;SDS011;23691;52.486;4.650;2023-02-03T07:27:22;31.73;;;4.30;;
37851;SDS011;23691;52.486;4.650;2023-02-03T07:29:48;28.88;;;5.03;;
37851;SDS011;23691;52.486;4.650;2023-02-03T07:32:13;29.23;;;4.10;;
37851;SDS011;23691;52.486;4.650;2023-02-03T07:34:39;24.55;;;4.22;;
37851;SDS011;23691;52.486;4.650;2023-02-03T07:37:04;26.40;;;4.68;;
37851;SDS011;23691;52.486;4.650;2023-02-03T07:39:29;34.45;;;4.47;;
37851;SDS011;23691;52.486;4.650;2023-02-03T07:41:55;26.92;;;4.50;;
37851;SDS011;23691;52.486;4.650;2023-02-03T07:44:20;38.33;;;5.13;;
37851;SDS011;23691;52.486;4.650;2023-02-03T07:46:46;31.88;;;4.50;;
37851;SDS011;23691;52.486;4.650;2023-02-03T07:49:12;26.00;;;4.53;;
37851;SDS011;23691;52.486;4.650;2023-02-03T07:51:38;30.25;;;3.83;;
37851;SDS011;23691;52.486;4.650;2023-02-03T07:54:03;25.30;;;4.13;;
37851;SDS011;23691;52.486;4.650;2023-02-03T07:56:28;27.80;;;4.20;;
37851;SDS011;23691;52.486;4.650;2023-02-03T07:58:56;23.92;;;4.75;;
37851;SDS011;23691;52.486;4.650;2023-02-03T08:01:22;28.02;;;4.30;;
37851;SDS011;23691;52.486;4.650;2023-02-03T08:03:48;26.20;;;4.07;;
37851;SDS011;23691;52.486;4.650;2023-02-03T08:06:13;22.27;;;3.85;;
37851;SDS011;23691;52.486;4.650;2023-02-03T08:08:39;28.63;;;4.03;;
37851;SDS011;23691;52.486;4.650;2023-02-03T08:11:05;23.15;;;3.33;;
37851;SDS011;23691;52.486;4.650;2023-02-03T08:13:31;34.28;;;4.88;;
37851;SDS011;23691;52.486;4.650;2023-02-03T08:15:56;27.13;;;4.28;;
37851;SDS011;23691;52.486;4.650;2023-02-03T08:18:21;28.42;;;4.10;;
37851;SDS011;23691;52.486;4.650;2023-02-03T08:20:47;32.92;;;4.00;;
37851;SDS011;23691;52.486;4.650;2023-02-03T08:23:13;28.75;;;4.95;;
37851;SDS011;23691;52.486;4.650;2023-02-03T08:25:38;32.40;;;4.32;;
37851;SDS011;23691;52.486;4.650;2023-02-03T08:28:04;21.25;;;3.42;;
37851;SDS011;23691;52.486;4.650;2023-02-03T08:30:29;24.05;;;3.53;;
37851;SDS011;23691;52.486;4.650;2023-02-03T08:32:54;26.42;;;3.92;;
37851;SDS011;23691;52.486;4.650;2023-02-03T08:35:20;29.55;;;4.25;;
37851;SDS011;23691;52.486;4.650;2023-02-03T08:37:45;23.63;;;3.70;;
37851;SDS011;23691;52.486;4.650;2023-02-03T08:40:11;30.25;;;4.65;;
37851;SDS011;23691;52.486;4.650;2023-02-03T08:42:36;32.75;;;4.68;;
37851;SDS011;23691;52.486;4.650;2023-02-03T08:45:02;29.63;;;4.63;;
37851;SDS011;23691;52.486;4.650;2023-02-03T08:47:28;28.60;;;4.75;;
37851;SDS011;23691;52.486;4.650;2023-02-03T08:49:53;30.50;;;4.60;;
37851;SDS011;23691;52.486;4.650;2023-02-03T08:52:18;34.78;;;4.65;;
37851;SDS011;23691;52.486;4.650;2023-02-03T08:54:45;28.73;;;3.95;;
37851;SDS011;23691;52.486;4.650;2023-02-03T08:57:10;32.38;;;4.05;;
37851;SDS011;23691;52.486;4.650;2023-02-03T08:59:39;27.50;;;4.35;;
37851;SDS011;23691;52.486;4.650;2023-02-03T09:02:07;38.95;;;4.85;;
37851;SDS011;23691;52.486;4.650;2023-02-03T09:04:35;26.70;;;4.05;;
37851;SDS011;23691;52.486;4.650;2023-02-03T09:07:01;28.08;;;4.35;;
37851;SDS011;23691;52.486;4.650;2023-02-03T09:09:28;34.50;;;5.65;;
37851;SDS011;23691;52.486;4.650;2023-02-03T09:11:54;24.10;;;3.92;;
37851;SDS011;23691;52.486;4.650;2023-02-03T09:14:25;29.77;;;4.60;;
37851;SDS011;23691;52.486;4.650;2023-02-03T09:16:52;25.75;;;4.07;;
37851;SDS011;23691;52.486;4.650;2023-02-03T09:19:17;32.97;;;4.93;;
37851;SDS011;23691;52.486;4.650;2023-02-03T09:21:43;27.50;;;4.55;;
37851;SDS011;23691;52.486;4.650;2023-02-03T09:24:09;32.28;;;4.95;;
37851;SDS011;23691;52.486;4.650;2023-02-03T09:26:34;31.85;;;4.43;;
37851;SDS011;23691;52.486;4.650;2023-02-03T09:29:00;27.02;;;4.30;;
37851;SDS011;23691;52.486;4.650;2023-02-03T09:31:25;36.85;;;5.32;;
37851;SDS011;23691;52.486;4.650;2023-02-03T09:33:51;29.38;;;5.05;;
37851;SDS011;23691;52.486;4.650;2023-02-03T09:36:16;29.85;;;4.82;;
37851;SDS011;23691;52.486;4.650;2023-02-03T09:38:41;29.95;;;4.20;;
37851;SDS011;23691;52.486;4.650;2023-02-03T09:43:38;33.08;;;5.15;;
37851;SDS011;23691;52.486;4.650;2023-02-03T09:46:14;33.35;;;4.75;;
37851;SDS011;23691;52.486;4.650;2023-02-03T09:48:46;33.17;;;4.65;;
37851;SDS011;23691;52.486;4.650;2023-02-03T09:51:35;37.00;;;5.00;;
37851;SDS011;23691;52.486;4.650;2023-02-03T09:54:06;31.25;;;5.10;;
37851;SDS011;23691;52.486;4.650;2023-02-03T09:56:41;31.98;;;4.88;;
37851;SDS011;23691;52.486;4.650;2023-02-03T09:59:16;31.92;;;5.03;;
37851;SDS011;23691;52.486;4.650;2023-02-03T10:01:48;39.20;;;5.15;;
37851;SDS011;23691;52.486;4.650;2023-02-03T10:10:31;24.25;;;3.72;;
37851;SDS011;23691;52.486;4.650;2023-02-03T10:13:05;25.67;;;3.95;;
37851;SDS011;23691;52.486;4.650;2023-02-03T10:18:44;29.00;;;4.00;;
37851;SDS011;23691;52.486;4.650;2023-02-03T10:23:48;25.42;;;4.03;;
37851;SDS011;23691;52.486;4.650;2023-02-03T10:26:19;28.83;;;3.75;;
37851;SDS011;23691;52.486;4.650;2023-02-03T10:28:53;25.85;;;3.63;;
37851;SDS011;23691;52.486;4.650;2023-02-03T10:31:23;28.85;;;3.90;;
37851;SDS011;23691;52.486;4.650;2023-02-03T10:33:58;30.10;;;3.83;;
37851;SDS011;23691;52.486;4.650;2023-02-03T10:36:30;26.58;;;3.85;;
37851;SDS011;23691;52.486;4.650;2023-02-03T10:39:26;31.30;;;4.07;;
37851;SDS011;23691;52.486;4.650;2023-02-03T10:41:52;33.83;;;4.15;;
37851;SDS011;23691;52.486;4.650;2023-02-03T10:44:17;25.98;;;3.75;;
37851;SDS011;23691;52.486;4.650;2023-02-03T10:46:43;28.60;;;3.70;;
37851;SDS011;23691;52.486;4.650;2023-02-03T10:49:28;24.83;;;4.15;;
37851;SDS011;23691;52.486;4.650;2023-02-03T10:51:54;24.40;;;4.18;;
37851;SDS011;23691;52.486;4.650;2023-02-03T10:54:29;31.20;;;4.43;;
37851;SDS011;23691;52.486;4.650;2023-02-03T10:57:03;28.88;;;4.32;;
37851;SDS011;23691;52.486;4.650;2023-02-03T11:02:19;37.47;;;4.50;;
37851;SDS011;23691;52.486;4.650;2023-02-03T11:07:40;28.48;;;4.30;;
37851;SDS011;23691;52.486;4.650;2023-02-03T11:10:27;27.90;;;4.35;;
37851;SDS011;23691;52.486;4.650;2023-02-03T11:15:36;28.05;;;4.47;;
37851;SDS011;23691;52.486;4.650;2023-02-03T11:18:02;30.23;;;4.70;;
37851;SDS011;23691;52.486;4.650;2023-02-03T11:20:28;37.50;;;4.68;;
37851;SDS011;23691;52.486;4.650;2023-02-03T11:22:53;34.08;;;4.60;;
37851;SDS011;23691;52.486;4.650;2023-02-03T11:25:22;31.95;;;5.50;;
37851;SDS011;23691;52.486;4.650;2023-02-03T11:27:51;32.17;;;4.85;;
37851;SDS011;23691;52.486;4.650;2023-02-03T11:32:50;28.33;;;4.10;;
37851;SDS011;23691;52.486;4.650;2023-02-03T11:35:26;30.83;;;3.92;;
37851;SDS011;23691;52.486;4.650;2023-02-03T11:37:57;36.95;;;4.10;;
37851;SDS011;23691;52.486;4.650;2023-02-03T11:40:27;24.08;;;3.72;;
37851;SDS011;23691;52.486;4.650;2023-02-03T11:43:00;27.13;;;4.00;;
37851;SDS011;23691;52.486;4.650;2023-02-03T11:45:38;23.98;;;3.75;;
37851;SDS011;23691;52.486;4.650;2023-02-03T11:48:17;33.83;;;4.55;;
37851;SDS011;23691;52.486;4.650;2023-02-03T11:56:31;29.88;;;4.47;;
37851;SDS011;23691;52.486;4.650;2023-02-03T12:02:28;29.38;;;3.92;;
37851;SDS011;23691;52.486;4.650;2023-02-03T12:05:08;31.60;;;4.88;;
37851;SDS011;23691;52.486;4.650;2023-02-03T12:10:34;28.00;;;3.88;;
37851;SDS011;23691;52.486;4.650;2023-02-03T12:21:59;26.63;;;4.10;;
37851;SDS011;23691;52.486;4.650;2023-02-03T12:24:53;27.77;;;4.63;;
37851;SDS011;23691;52.486;4.650;2023-02-03T12:30:12;29.42;;;3.95;;
37851;SDS011;23691;52.486;4.650;2023-02-03T12:32:47;36.78;;;4.78;;
37851;SDS011;23691;52.486;4.650;2023-02-03T12:35:23;28.45;;;4.20;;
37851;SDS011;23691;52.486;4.650;2023-02-03T12:46:03;26.60;;;4.18;;
37851;SDS011;23691;52.486;4.650;2023-02-03T12:48:55;28.60;;;3.80;;
37851;SDS011;23691;52.486;4.650;2023-02-03T12:56:50;35.10;;;4.65;;
37851;SDS011;23691;52.486;4.650;2023-02-03T12:59:21;36.15;;;4.82;;
37851;SDS011;23691;52.486;4.650;2023-02-03T13:02:23;34.33;;;4.28;;
37851;SDS011;23691;52.486;4.650;2023-02-03T13:04:48;32.55;;;4.65;;
37851;SDS011;23691;52.486;4.650;2023-02-03T13:07:42;25.52;;;3.95;;
37851;SDS011;23691;52.486;4.650;2023-02-03T13:10:29;36.67;;;4.78;;
37851;SDS011;23691;52.486;4.650;2023-02-03T13:13:00;22.90;;;4.53;;
37851;SDS011;23691;52.486;4.650;2023-02-03T13:15:33;36.15;;;4.55;;
37851;SDS011;23691;52.486;4.650;2023-02-03T13:20:59;36.70;;;4.40;;
37851;SDS011;23691;52.486;4.650;2023-02-03T13:23:24;33.97;;;5.43;;
37851;SDS011;23691;52.486;4.650;2023-02-03T13:25:58;33.47;;;5.07;;
37851;SDS011;23691;52.486;4.650;2023-02-03T13:40:20;33.88;;;5.40;;
37851;SDS011;23691;52.486;4.650;2023-02-03T13:43:03;35.10;;;5.65;;
37851;SDS011;23691;52.486;4.650;2023-02-03T13:45:37;36.50;;;4.65;;
37851;SDS011;23691;52.486;4.650;2023-02-03T13:48:07;31.83;;;5.45;;
37851;SDS011;23691;52.486;4.650;2023-02-03T13:50:46;39.50;;;5.32;;
37851;SDS011;23691;52.486;4.650;2023-02-03T13:56:43;39.50;;;5.05;;
37851;SDS011;23691;52.486;4.650;2023-02-03T13:58:45;35.50;;;4.70;;
37851;SDS011;23691;52.486;4.650;2023-02-03T14:01:25;36.90;;;4.65;;
37851;SDS011;23691;52.486;4.650;2023-02-03T14:03:54;32.08;;;4.90;;
37851;SDS011;23691;52.486;4.650;2023-02-03T14:09:20;40.97;;;5.55;;
37851;SDS011;23691;52.486;4.650;2023-02-03T14:12:11;36.38;;;5.05;;
37851;SDS011;23691;52.486;4.650;2023-02-03T14:14:54;33.80;;;4.88;;
37851;SDS011;23691;52.486;4.650;2023-02-03T14:19:58;32.55;;;4.88;;
37851;SDS011;23691;52.486;4.650;2023-02-03T14:22:24;29.05;;;4.68;;
37851;SDS011;23691;52.486;4.650;2023-02-03T14:24:51;35.42;;;5.13;;
37851;SDS011;23691;52.486;4.650;2023-02-03T14:27:21;39.10;;;5.30;;
37851;SDS011;23691;52.486;4.650;2023-02-03T14:30:09;33.00;;;5.00;;
37851;SDS011;23691;52.486;4.650;2023-02-03T14:32:50;37.03;;;5.00;;
37851;SDS011;23691;52.486;4.650;2023-02-03T14:35:19;38.63;;;4.97;;
37851;SDS011;23691;52.486;4.650;2023-02-03T14:37:54;33.58;;;5.32;;
37851;SDS011;23691;52.486;4.650;2023-02-03T14:56:21;37.72;;;5.45;;
37851;SDS011;23691;52.486;4.650;2023-02-03T14:59:15;35.23;;;5.07;;
37851;SDS011;23691;52.486;4.650;2023-02-03T15:06:39;35.08;;;5.40;;
37851;SDS011;23691;52.486;4.650;2023-02-03T15:11:51;35.30;;;4.80;;
37851;SDS011;23691;52.486;4.650;2023-02-03T15:14:24;34.85;;;4.78;;
37851;SDS011;23691;52.486;4.650;2023-02-03T15:16:58;35.20;;;5.65;;
37851;SDS011;23691;52.486;4.650;2023-02-03T15:19:26;24.63;;;4.20;;
37851;SDS011;23691;52.486;4.650;2023-02-03T15:24:49;40.17;;;6.82;;
37851;SDS011;23691;52.486;4.650;2023-02-03T15:27:30;39.15;;;7.38;;
37851;SDS011;23691;52.486;4.650;2023-02-03T15:29:56;44.70;;;5.93;;
37851;SDS011;23691;52.486;4.650;2023-02-03T15:32:28;37.85;;;6.85;;
37851;SDS011;23691;52.486;4.650;2023-02-03T15:34:54;35.08;;;5.80;;
37851;SDS011;23691;52.486;4.650;2023-02-03T15:37:40;34.60;;;4.80;;
37851;SDS011;23691;52.486;4.650;2023-02-03T15:40:16;41.53;;;6.25;;
37851;SDS011;23691;52.486;4.650;2023-02-03T15:45:30;35.05;;;6.93;;
37851;SDS011;23691;52.486;4.650;2023-02-03T15:50:40;30.58;;;5.65;;
37851;SDS011;23691;52.486;4.650;2023-02-03T15:53:10;37.20;;;5.97;;
37851;SDS011;23691;52.486;4.650;2023-02-03T15:55:45;35.33;;;5.10;;
37851;SDS011;23691;52.486;4.650;2023-02-03T15:58:18;33.38;;;5.15;;
37851;SDS011;23691;52.486;4.650;2023-02-03T16:00:48;33.20;;;5.20;;
37851;SDS011;23691;52.486;4.650;2023-02-03T16:03:18;37.67;;;4.72;;
37851;SDS011;23691;52.486;4.650;2023-02-03T16:06:14;35.25;;;5.38;;
37851;SDS011;23691;52.486;4.650;2023-02-03T16:08:44;34.65;;;5.00;;
37851;SDS011;23691;52.486;4.650;2023-02-03T16:11:23;32.53;;;4.63;;
37851;SDS011;23691;52.486;4.650;2023-02-03T16:13:52;35.78;;;4.45;;
37851;SDS011;23691;52.486;4.650;2023-02-03T16:19:22;32.70;;;4.97;;
37851;SDS011;23691;52.486;4.650;2023-02-03T16:29:50;38.17;;;7.35;;
37851;SDS011;23691;52.486;4.650;2023-02-03T16:32:38;50.00;;;9.13;;
37851;SDS011;23691;52.486;4.650;2023-02-03T16:35:22;45.10;;;8.75;;
37851;SDS011;23691;52.486;4.650;2023-02-03T16:38:09;33.83;;;7.75;;
37851;SDS011;23691;52.486;4.650;2023-02-03T16:40:58;40.40;;;7.65;;
37851;SDS011;23691;52.486;4.650;2023-02-03T16:43:41;35.83;;;5.78;;
37851;SDS011;23691;52.486;4.650;2023-02-03T16:46:25;40.97;;;6.43;;
37851;SDS011;23691;52.486;4.650;2023-02-03T16:49:09;40.05;;;5.78;;
37851;SDS011;23691;52.486;4.650;2023-02-03T16:51:53;42.38;;;5.63;;
37851;SDS011;23691;52.486;4.650;2023-02-03T16:54:19;33.70;;;5.15;;
37851;SDS011;23691;52.486;4.650;2023-02-03T16:56:44;32.88;;;4.80;;
37851;SDS011;23691;52.486;4.650;2023-02-03T16:59:10;29.95;;;4.93;;
37851;SDS011;23691;52.486;4.650;2023-02-03T17:01:35;40.33;;;5.20;;
37851;SDS011;23691;52.486;4.650;2023-02-03T17:04:01;41.40;;;7.10;;
37851;SDS011;23691;52.486;4.650;2023-02-03T17:06:27;34.60;;;5.32;;
37851;SDS011;23691;52.486;4.650;2023-02-03T17:08:52;41.20;;;5.10;;
37851;SDS011;23691;52.486;4.650;2023-02-03T17:11:19;34.67;;;5.43;;
37851;SDS011;23691;52.486;4.650;2023-02-03T17:13:46;37.45;;;5.05;;
37851;SDS011;23691;52.486;4.650;2023-02-03T17:16:16;35.55;;;4.65;;